sensor_id;sensor_type;location;lat;lon;timestamp;pressure;altitude;pressure_sealevel;temperature;humidity
2036;BME280;23642;42.658;23.350;2023-08-06T00:01:15;47867.72;;;-146.31;100.00
2036;BME280;23642;42.658;23.350;2023-08-06T00:03:44;47894.53;;;-146.31;100.00
2036;BME280;23642;42.658;23.350;2023-08-06T00:06:11;47851.25;;;-146.31;100.00
2036;BME280;23642;42.658;23.350;2023-08-06T00:08:38;47698.75;;;-146.31;100.00
2036;BME280;23642;42.658;23.350;2023-08-06T00:11:04;47614.25;;;-146.31;100.00
2036;BME280;23642;42.658;23.350;2023-08-06T00:13:31;47643.09;;;-146.31;100.00
2036;BME280;23642;42.658;23.350;2023-08-06T00:16:09;47628.69;;;-146.31;100.00
2036;BME280;23642;42.658;23.350;2023-08-06T00:18:36;47538.00;;;-146.31;100.00
2036;BME280;23642;42.658;23.350;2023-08-06T00:21:03;47562.75;;;-146.31;100.00
2036;BME280;23642;42.658;23.350;2023-08-06T00:23:31;47416.44;;;-146.31;100.00
2036;BME280;23642;42.658;23.350;2023-08-06T00:25:58;47266.03;;;-146.31;100.00
2036;BME280;23642;42.658;23.350;2023-08-06T00:28:25;47249.53;;;-146.31;100.00
2036;BME280;23642;42.658;23.350;2023-08-06T00:30:55;47216.56;;;-146.31;100.00
2036;BME280;23642;42.658;23.350;2023-08-06T00:33:24;47183.59;;;-146.31;100.00
2036;BME280;23642;42.658;23.350;2023-08-06T00:35:52;47082.66;;;-146.31;100.00
2036;BME280;23642;42.658;23.350;2023-08-06T00:38:19;47041.44;;;-146.31;100.00
2036;BME280;23642;42.658;23.350;2023-08-06T00:40:48;47076.47;;;-146.31;100.00
2036;BME280;23642;42.658;23.350;2023-08-06T00:43:16;47187.72;;;-146.31;100.00
2036;BME280;23642;42.658;23.350;2023-08-06T00:45:44;47055.88;;;-146.31;100.00
2036;BME280;23642;42.658;23.350;2023-08-06T00:48:11;46897.22;;;-146.31;100.00
2036;BME280;23642;42.658;23.350;2023-08-06T00:50:40;46802.44;;;-146.31;100.00
2036;BME280;23642;42.658;23.350;2023-08-06T00:53:08;46818.94;;;-146.31;100.00
2036;BME280;23642;42.658;23.350;2023-08-06T00:55:37;46763.31;;;-146.31;100.00
2036;BME280;23642;42.658;23.350;2023-08-06T00:58:04;46668.53;;;-146.31;100.00
2036;BME280;23642;42.658;23.350;2023-08-06T01:00:36;46590.25;;;-146.31;100.00
2036;BME280;23642;42.658;23.350;2023-08-06T01:03:08;46497.56;;;-146.31;100.00
2036;BME280;23642;42.658;23.350;2023-08-06T01:05:39;46458.44;;;-146.31;100.00
2036;BME280;23642;42.658;23.350;2023-08-06T01:08:30;46384.25;;;-146.31;100.00
2036;BME280;23642;42.658;23.350;2023-08-06T01:11:08;46349.25;;;-146.31;100.00
2036;BME280;23642;42.658;23.350;2023-08-06T01:13:42;46194.75;;;-146.31;100.00
2036;BME280;23642;42.658;23.350;2023-08-06T01:16:18;46069.13;;;-146.31;100.00
2036;BME280;23642;42.658;23.350;2023-08-06T01:18:48;45972.31;;;-146.31;100.00
2036;BME280;23642;42.658;23.350;2023-08-06T01:21:17;46009.38;;;-146.31;100.00
2036;BME280;23642;42.658;23.350;2023-08-06T01:23:45;46048.50;;;-146.31;100.00
2036;BME280;23642;42.658;23.350;2023-08-06T01:26:17;46120.59;;;-146.31;100.00
2036;BME280;23642;42.658;23.350;2023-08-06T01:28:56;46124.72;;;-146.31;100.00
2036;BME280;23642;42.658;23.350;2023-08-06T01:31:30;46143.25;;;-146.31;100.00
2036;BME280;23642;42.658;23.350;2023-08-06T01:33:59;46139.16;;;-146.31;100.00
2036;BME280;23642;42.658;23.350;2023-08-06T01:36:30;46112.38;;;-146.31;100.00
2036;BME280;23642;42.658;23.350;2023-08-06T01:38:57;46143.25;;;-146.31;100.00
2036;BME280;23642;42.658;23.350;2023-08-06T01:41:25;46135.03;;;-146.31;100.00
2036;BME280;23642;42.658;23.350;2023-08-06T01:43:52;46219.47;;;-146.31;100.00
2036;BME280;23642;42.658;23.350;2023-08-06T01:46:18;46238.00;;;-146.31;100.00
2036;BME280;23642;42.658;23.350;2023-08-06T01:48:46;46293.63;;;-146.31;100.00
2036;BME280;23642;42.658;23.350;2023-08-06T01:51:13;46396.63;;;-146.31;100.00
2036;BME280;23642;42.658;23.350;2023-08-06T01:53:41;46454.31;;;-146.31;100.00
2036;BME280;23642;42.658;23.350;2023-08-06T01:56:10;46462.53;;;-146.31;100.00
2036;BME280;23642;42.658;23.350;2023-08-06T01:58:38;46435.75;;;-146.31;100.00
2036;BME280;23642;42.658;23.350;2023-08-06T02:01:10;46413.09;;;-146.31;100.00
2036;BME280;23642;42.658;23.350;2023-08-06T02:03:37;46355.44;;;-146.31;100.00
2036;BME280;23642;42.658;23.350;2023-08-06T02:06:04;46314.22;;;-146.31;100.00
2036;BME280;23642;42.658;23.350;2023-08-06T02:08:36;46312.16;;;-146.31;100.00
2036;BME280;23642;42.658;23.350;2023-08-06T02:11:05;46326.59;;;-146.31;100.00
2036;BME280;23642;42.658;23.350;2023-08-06T02:13:35;46285.38;;;-146.31;100.00
2036;BME280;23642;42.658;23.350;2023-08-06T02:16:02;46293.63;;;-146.31;100.00
2036;BME280;23642;42.658;23.350;2023-08-06T02:18:31;46233.91;;;-146.31;100.00
2036;BME280;23642;42.658;23.350;2023-08-06T02:20:59;46235.94;;;-146.31;100.00
2036;BME280;23642;42.658;23.350;2023-08-06T02:23:30;46262.72;;;-146.31;100.00
2036;BME280;23642;42.658;23.350;2023-08-06T02:25:58;46266.84;;;-146.31;100.00
2036;BME280;23642;42.658;23.350;2023-08-06T02:28:26;46227.72;;;-146.31;100.00
2036;BME280;23642;42.658;23.350;2023-08-06T02:30:53;46221.53;;;-146.31;100.00
2036;BME280;23642;42.658;23.350;2023-08-06T02:33:21;46153.56;;;-146.31;100.00
2036;BME280;23642;42.658;23.350;2023-08-06T02:35:48;46120.59;;;-146.31;100.00
2036;BME280;23642;42.658;23.350;2023-08-06T02:38:15;46013.50;;;-146.31;100.00
2036;BME280;23642;42.658;23.350;2023-08-06T02:40:45;45912.56;;;-146.31;100.00
2036;BME280;23642;42.658;23.350;2023-08-06T02:43:12;45782.81;;;-146.31;100.00
2036;BME280;23642;42.658;23.350;2023-08-06T02:45:41;45638.66;;;-146.31;100.00
2036;BME280;23642;42.658;23.350;2023-08-06T02:48:08;45609.81;;;-146.31;100.00
2036;BME280;23642;42.658;23.350;2023-08-06T02:50:39;45581.00;;;-146.31;100.00
2036;BME280;23642;42.658;23.350;2023-08-06T02:53:06;45478.03;;;-146.31;100.00
2036;BME280;23642;42.658;23.350;2023-08-06T02:55:33;45564.53;;;-146.31;100.00
2036;BME280;23642;42.658;23.350;2023-08-06T02:58:00;45519.22;;;-146.31;100.00
2036;BME280;23642;42.658;23.350;2023-08-06T03:00:27;45443.00;;;-146.31;100.00
2036;BME280;23642;42.658;23.350;2023-08-06T03:02:56;45230.91;;;-146.31;100.00
2036;BME280;23642;42.658;23.350;2023-08-06T03:05:26;44975.56;;;-146.31;100.00
2036;BME280;23642;42.658;23.350;2023-08-06T03:07:53;44915.88;;;-146.31;100.00
2036;BME280;23642;42.658;23.350;2023-08-06T03:10:20;44814.97;;;-146.31;100.00
2036;BME280;23642;42.658;23.350;2023-08-06T03:12:49;44839.69;;;-146.31;100.00
2036;BME280;23642;42.658;23.350;2023-08-06T03:15:16;44833.50;;;-146.31;100.00
2036;BME280;23642;42.658;23.350;2023-08-06T03:17:43;44843.81;;;-146.31;100.00
2036;BME280;23642;42.658;23.350;2023-08-06T03:20:14;44831.44;;;-146.31;100.00
2036;BME280;23642;42.658;23.350;2023-08-06T03:22:41;44802.63;;;-146.31;100.00
2036;BME280;23642;42.658;23.350;2023-08-06T03:25:08;44802.63;;;-146.31;100.00
2036;BME280;23642;42.658;23.350;2023-08-06T03:27:35;44790.28;;;-146.31;100.00
2036;BME280;23642;42.658;23.350;2023-08-06T03:30:03;44699.69;;;-146.31;100.00
2036;BME280;23642;42.658;23.350;2023-08-06T03:32:30;44586.44;;;-146.31;100.00
2036;BME280;23642;42.658;23.350;2023-08-06T03:34:57;44440.25;;;-146.31;100.00
2036;BME280;23642;42.658;23.350;2023-08-06T03:37:25;44246.75;;;-146.31;100.00
2036;BME280;23642;42.658;23.350;2023-08-06T03:39:52;44143.81;;;-146.31;100.00
2036;BME280;23642;42.658;23.350;2023-08-06T03:42:19;44271.47;;;-146.31;100.00
2036;BME280;23642;42.658;23.350;2023-08-06T03:44:46;44411.44;;;-146.31;100.00
2036;BME280;23642;42.658;23.350;2023-08-06T03:47:16;44419.69;;;-146.31;100.00
2036;BME280;23642;42.658;23.350;2023-08-06T03:49:44;44386.75;;;-146.31;100.00
2036;BME280;23642;42.658;23.350;2023-08-06T03:52:27;44310.56;;;-146.31;100.00
2036;BME280;23642;42.658;23.350;2023-08-06T03:54:54;44238.50;;;-146.31;100.00
2036;BME280;23642;42.658;23.350;2023-08-06T03:57:21;44086.19;;;-146.31;100.00
2036;BME280;23642;42.658;23.350;2023-08-06T03:59:50;43954.44;;;-146.31;100.00
2036;BME280;23642;42.658;23.350;2023-08-06T04:02:18;43896.81;;;-146.31;100.00
2036;BME280;23642;42.658;23.350;2023-08-06T04:04:48;43905.03;;;-146.31;100.00
2036;BME280;23642;42.658;23.350;2023-08-06T04:07:15;43765.06;;;-146.31;100.00
2036;BME280;23642;42.658;23.350;2023-08-06T04:09:59;43598.34;;;-146.31;100.00
2036;BME280;23642;42.658;23.350;2023-08-06T04:12:27;43509.84;;;-146.31;100.00
2036;BME280;23642;42.658;23.350;2023-08-06T04:14:57;43518.09;;;-146.31;100.00
2036;BME280;23642;42.658;23.350;2023-08-06T04:17:25;43579.81;;;-146.31;100.00
2036;BME280;23642;42.658;23.350;2023-08-06T04:19:54;43798.00;;;-146.31;100.00
2036;BME280;23642;42.658;23.350;2023-08-06T04:22:24;44012.06;;;-146.31;100.00
2036;BME280;23642;42.658;23.350;2023-08-06T04:24:51;44230.28;;;-146.31;100.00
2036;BME280;23642;42.658;23.350;2023-08-06T04:27:20;44203.53;;;-146.31;100.00
2036;BME280;23642;42.658;23.350;2023-08-06T04:29:47;44104.72;;;-146.31;100.00
2036;BME280;23642;42.658;23.350;2023-08-06T04:32:16;44143.81;;;-146.31;100.00
2036;BME280;23642;42.658;23.350;2023-08-06T04:34:45;44329.09;;;-146.31;100.00
2036;BME280;23642;42.658;23.350;2023-08-06T04:37:12;44448.50;;;-146.31;100.00
2036;BME280;23642;42.658;23.350;2023-08-06T04:39:39;44543.19;;;-146.31;100.00
2036;BME280;23642;42.658;23.350;2023-08-06T04:42:06;44526.72;;;-146.31;100.00
2036;BME280;23642;42.658;23.350;2023-08-06T04:44:35;44652.31;;;-146.31;100.00
2036;BME280;23642;42.658;23.350;2023-08-06T04:47:02;44720.25;;;-146.31;100.00
2036;BME280;23642;42.658;23.350;2023-08-06T04:49:32;44821.16;;;-146.31;100.00
2036;BME280;23642;42.658;23.350;2023-08-06T04:52:06;44973.53;;;-146.31;100.00
2036;BME280;23642;42.658;23.350;2023-08-06T04:54:33;45146.47;;;-146.31;100.00
2036;BME280;23642;42.658;23.350;2023-08-06T04:57:01;45140.31;;;-146.31;100.00
2036;BME280;23642;42.658;23.350;2023-08-06T04:59:31;45165.00;;;-146.31;100.00
2036;BME280;23642;42.658;23.350;2023-08-06T05:02:00;45309.16;;;-146.31;100.00
2036;BME280;23642;42.658;23.350;2023-08-06T05:04:27;45490.38;;;-146.31;100.00
2036;BME280;23642;42.658;23.350;2023-08-06T05:06:54;45529.50;;;-146.31;100.00
2036;BME280;23642;42.658;23.350;2023-08-06T05:09:21;45813.72;;;-146.31;100.00
2036;BME280;23642;42.658;23.350;2023-08-06T05:11:49;46161.81;;;-146.31;100.00
2036;BME280;23642;42.658;23.350;2023-08-06T05:14:19;46182.41;;;-146.31;100.00
2036;BME280;23642;42.658;23.350;2023-08-06T05:16:46;46367.78;;;-146.31;100.00
2036;BME280;23642;42.658;23.350;2023-08-06T05:19:14;46376.03;;;-146.31;100.00
2036;BME280;23642;42.658;23.350;2023-08-06T05:21:41;46499.63;;;-146.31;100.00
2036;BME280;23642;42.658;23.350;2023-08-06T05:24:10;46806.56;;;-146.31;100.00
2036;BME280;23642;42.658;23.350;2023-08-06T05:26:37;47097.06;;;-146.31;100.00
2036;BME280;23642;42.658;23.350;2023-08-06T05:29:04;47107.38;;;-146.31;100.00
2036;BME280;23642;42.658;23.350;2023-08-06T05:31:31;46946.66;;;-146.31;100.00
2036;BME280;23642;42.658;23.350;2023-08-06T05:33:59;47002.28;;;-146.31;100.00
2036;BME280;23642;42.658;23.350;2023-08-06T05:36:28;47202.16;;;-146.31;100.00
2036;BME280;23642;42.658;23.350;2023-08-06T05:39:04;47216.56;;;-146.31;100.00
2036;BME280;23642;42.658;23.350;2023-08-06T05:41:36;47323.72;;;-146.31;100.00
2036;BME280;23642;42.658;23.350;2023-08-06T05:44:07;47179.50;;;-146.31;100.00
2036;BME280;23642;42.658;23.350;2023-08-06T05:46:36;47076.47;;;-146.31;100.00
2036;BME280;23642;42.658;23.350;2023-08-06T05:49:03;47439.09;;;-146.31;100.00
2036;BME280;23642;42.658;23.350;2023-08-06T05:51:41;47533.91;;;-146.31;100.00
2036;BME280;23642;42.658;23.350;2023-08-06T05:54:08;47888.34;;;-146.31;98.07
2036;BME280;23642;42.658;23.350;2023-08-06T05:56:36;48061.44;;;-146.31;96.29
2036;BME280;23642;42.658;23.350;2023-08-06T05:59:02;48411.84;;;-146.31;94.02
2036;BME280;23642;42.658;23.350;2023-08-06T06:01:32;48568.47;;;-146.31;92.75
2036;BME280;23642;42.658;23.350;2023-08-06T06:04:02;48772.56;;;-146.31;92.23
2036;BME280;23642;42.658;23.350;2023-08-06T06:06:42;48789.03;;;-146.31;92.56
2036;BME280;23642;42.658;23.350;2023-08-06T06:09:10;48830.28;;;-146.31;92.30
2036;BME280;23642;42.658;23.350;2023-08-06T06:11:37;48813.78;;;-146.31;92.10
2036;BME280;23642;42.658;23.350;2023-08-06T06:14:09;48859.13;;;-146.31;90.77
2036;BME280;23642;42.658;23.350;2023-08-06T06:16:43;49094.16;;;-146.31;89.20
2036;BME280;23642;42.658;23.350;2023-08-06T06:19:10;49232.28;;;-146.31;87.95
2036;BME280;23642;42.658;23.350;2023-08-06T06:21:44;49380.72;;;-146.31;87.07
2036;BME280;23642;42.658;23.350;2023-08-06T06:24:11;49347.72;;;-146.31;88.84
2036;BME280;23642;42.658;23.350;2023-08-06T06:26:44;49384.84;;;-146.31;88.20
2036;BME280;23642;42.658;23.350;2023-08-06T06:29:13;49450.81;;;-146.31;87.71
2036;BME280;23642;42.658;23.350;2023-08-06T06:31:42;49368.34;;;-146.31;89.45
2036;BME280;23642;42.658;23.350;2023-08-06T06:34:10;49475.56;;;-146.31;89.72
2036;BME280;23642;42.658;23.350;2023-08-06T06:36:42;49512.66;;;-146.31;89.14
2036;BME280;23642;42.658;23.350;2023-08-06T06:39:28;49512.66;;;-146.31;87.85
2036;BME280;23642;42.658;23.350;2023-08-06T06:42:00;49508.53;;;-146.31;86.88
2036;BME280;23642;42.658;23.350;2023-08-06T06:44:32;49644.63;;;-146.31;84.74
2036;BME280;23642;42.658;23.350;2023-08-06T06:47:09;49826.06;;;-146.31;84.07
2036;BME280;23642;42.658;23.350;2023-08-06T06:49:44;49852.88;;;-146.31;85.83
2036;BME280;23642;42.658;23.350;2023-08-06T06:52:33;49737.41;;;-146.31;85.58
2036;BME280;23642;42.658;23.350;2023-08-06T06:55:24;49840.50;;;-146.31;85.82
2036;BME280;23642;42.658;23.350;2023-08-06T06:58:24;49780.72;;;-146.31;88.64
2036;BME280;23642;42.658;23.350;2023-08-06T07:01:09;49819.91;;;-146.31;87.61
2036;BME280;23642;42.658;23.350;2023-08-06T07:03:59;49832.25;;;-146.31;86.31
2036;BME280;23642;42.658;23.350;2023-08-06T07:06:40;49935.38;;;-146.31;84.10
2036;BME280;23642;42.658;23.350;2023-08-06T07:09:45;50005.47;;;-146.31;83.40
2036;BME280;23642;42.658;23.350;2023-08-06T07:12:19;50203.44;;;-146.31;81.50
2036;BME280;23642;42.658;23.350;2023-08-06T07:14:50;50203.44;;;-146.31;82.32
2036;BME280;23642;42.658;23.350;2023-08-06T07:17:25;50189.00;;;-146.31;81.79
2036;BME280;23642;42.658;23.350;2023-08-06T07:20:06;50450.94;;;-146.31;80.70
2036;BME280;23642;42.658;23.350;2023-08-06T07:22:56;50570.56;;;-146.31;81.18
2036;BME280;23642;42.658;23.350;2023-08-06T07:25:57;50618.00;;;-146.31;80.67
2036;BME280;23642;42.658;23.350;2023-08-06T07:28:42;50646.88;;;-146.31;79.21
2036;BME280;23642;42.658;23.350;2023-08-06T07:31:10;50655.13;;;-146.31;79.14
2036;BME280;23642;42.658;23.350;2023-08-06T07:33:42;50679.88;;;-146.31;78.53
2036;BME280;23642;42.658;23.350;2023-08-06T07:36:32;50981.00;;;-146.31;76.84
2036;BME280;23642;42.658;23.350;2023-08-06T07:39:07;50960.38;;;-146.31;75.53
2036;BME280;23642;42.658;23.350;2023-08-06T07:42:05;51209.97;;;-146.31;72.40
2036;BME280;23642;42.658;23.350;2023-08-06T07:45:07;51236.78;;;-146.31;73.60
2036;BME280;23642;42.658;23.350;2023-08-06T07:48:12;51391.50;;;-146.31;74.48
2036;BME280;23642;42.658;23.350;2023-08-06T07:50:50;51393.56;;;-146.31;72.79
2036;BME280;23642;42.658;23.350;2023-08-06T07:53:25;51441.03;;;-146.31;72.21
2036;BME280;23642;42.658;23.350;2023-08-06T07:56:06;51527.66;;;-146.31;73.19
2036;BME280;23642;42.658;23.350;2023-08-06T07:58:41;51500.84;;;-146.31;72.27
2036;BME280;23642;42.658;23.350;2023-08-06T08:01:08;51488.47;;;-146.31;72.99
2036;BME280;23642;42.658;23.350;2023-08-06T08:03:43;51517.34;;;-146.31;72.17
2036;BME280;23642;42.658;23.350;2023-08-06T08:06:22;51634.94;;;-146.31;71.03
2036;BME280;23642;42.658;23.350;2023-08-06T08:09:05;51657.66;;;-146.31;73.57
2036;BME280;23642;42.658;23.350;2023-08-06T08:11:42;51665.91;;;-146.31;72.83
2036;BME280;23642;42.658;23.350;2023-08-06T08:14:12;51665.91;;;-146.31;72.17
2036;BME280;23642;42.658;23.350;2023-08-06T08:16:39;51674.16;;;-146.31;70.38
2036;BME280;23642;42.658;23.350;2023-08-06T08:19:08;51591.63;;;-146.31;70.58
2036;BME280;23642;42.658;23.350;2023-08-06T08:21:39;51676.22;;;-146.31;70.00
2036;BME280;23642;42.658;23.350;2023-08-06T08:24:08;51950.63;;;-146.31;68.97
2036;BME280;23642;42.658;23.350;2023-08-06T08:26:41;51903.16;;;-146.31;68.98
2036;BME280;23642;42.658;23.350;2023-08-06T08:29:17;51917.63;;;-146.31;68.80
2036;BME280;23642;42.658;23.350;2023-08-06T08:31:50;51876.34;;;-146.31;68.29
2036;BME280;23642;42.658;23.350;2023-08-06T08:34:19;52008.41;;;-146.31;67.89
2036;BME280;23642;42.658;23.350;2023-08-06T08:36:52;52039.34;;;-146.31;68.25
2036;BME280;23642;42.658;23.350;2023-08-06T08:39:21;52150.78;;;-146.31;68.41
2036;BME280;23642;42.658;23.350;2023-08-06T08:42:03;52161.09;;;-146.31;69.33
2036;BME280;23642;42.658;23.350;2023-08-06T08:44:39;52103.31;;;-146.31;69.93
2036;BME280;23642;42.658;23.350;2023-08-06T08:47:11;51882.53;;;-146.31;69.08
2036;BME280;23642;42.658;23.350;2023-08-06T08:49:40;51925.88;;;-146.31;70.07
2036;BME280;23642;42.658;23.350;2023-08-06T08:52:10;51923.81;;;-146.31;70.20
2036;BME280;23642;42.658;23.350;2023-08-06T08:54:43;51901.09;;;-146.31;70.13
2036;BME280;23642;42.658;23.350;2023-08-06T08:57:22;51975.38;;;-146.31;70.85
2036;BME280;23642;42.658;23.350;2023-08-06T09:00:02;51938.25;;;-146.31;70.42
2036;BME280;23642;42.658;23.350;2023-08-06T09:04:07;52074.44;;;-146.31;72.03
2036;BME280;23642;42.658;23.350;2023-08-06T09:05:55;51993.94;;;-146.31;70.34
2036;BME280;23642;42.658;23.350;2023-08-06T09:11:39;51927.94;;;-146.31;68.59
2036;BME280;23642;42.658;23.350;2023-08-06T09:14:21;51979.50;;;-146.31;68.97
2036;BME280;23642;42.658;23.350;2023-08-06T09:17:19;51963.00;;;-146.31;70.13
2036;BME280;23642;42.658;23.350;2023-08-06T09:19:54;51925.88;;;-146.31;69.03
2036;BME280;23642;42.658;23.350;2023-08-06T09:23:07;52109.50;;;-146.31;69.89
2036;BME280;23642;42.658;23.350;2023-08-06T09:25:33;52062.03;;;-146.31;69.91
2036;BME280;23642;42.658;23.350;2023-08-06T09:31:52;52037.28;;;-146.31;66.79
2036;BME280;23642;42.658;23.350;2023-08-06T09:48:52;52646.03;;;-146.31;57.05
2036;BME280;23642;42.658;23.350;2023-08-06T09:59:23;52788.44;;;-146.31;54.02
2036;BME280;23642;42.658;23.350;2023-08-06T10:02:42;52916.41;;;-146.31;53.88
2036;BME280;23642;42.658;23.350;2023-08-06T11:47:11;53702.84;;;-146.31;66.64
2036;BME280;23642;42.658;23.350;2023-08-06T12:19:45;53543.88;;;-146.31;55.23
2036;BME280;23642;42.658;23.350;2023-08-06T12:39:51;53680.13;;;-146.31;53.54
2036;BME280;23642;42.658;23.350;2023-08-06T12:47:03;53667.75;;;-146.31;50.79
2036;BME280;23642;42.658;23.350;2023-08-06T12:50:23;53702.84;;;-146.31;50.22
2036;BME280;23642;42.658;23.350;2023-08-06T12:53:23;53791.59;;;-146.31;50.06
2036;BME280;23642;42.658;23.350;2023-08-06T13:01:17;53723.47;;;-146.31;49.92
2036;BME280;23642;42.658;23.350;2023-08-06T13:44:47;54045.53;;;-146.31;48.55
2036;BME280;23642;42.658;23.350;2023-08-06T13:48:05;54070.31;;;-146.31;48.39
2036;BME280;23642;42.658;23.350;2023-08-06T14:10:47;54130.19;;;-146.31;46.56
2036;BME280;23642;42.658;23.350;2023-08-06T14:17:53;54126.06;;;-146.31;44.91
2036;BME280;23642;42.658;23.350;2023-08-06T14:44:47;54258.19;;;-146.31;42.32
2036;BME280;23642;42.658;23.350;2023-08-06T14:48:06;54353.19;;;-146.31;43.34
2036;BME280;23642;42.658;23.350;2023-08-06T14:51:27;54241.69;;;-146.31;43.17
2036;BME280;23642;42.658;23.350;2023-08-06T14:54:45;54229.28;;;-146.31;42.08
2036;BME280;23642;42.658;23.350;2023-08-06T14:58:00;54004.25;;;-146.31;39.02
2036;BME280;23642;42.658;23.350;2023-08-06T15:01:42;54070.31;;;-146.31;37.89
2036;BME280;23642;42.658;23.350;2023-08-06T15:08:00;54130.19;;;-146.31;37.17
2036;BME280;23642;42.658;23.350;2023-08-06T15:10:55;54163.22;;;-146.31;38.27
2036;BME280;23642;42.658;23.350;2023-08-06T15:34:26;54766.16;;;-146.31;43.86
2036;BME280;23642;42.658;23.350;2023-08-06T15:37:27;54793.00;;;-146.31;44.32
2036;BME280;23642;42.658;23.350;2023-08-06T15:43:47;54662.91;;;-146.31;43.67
2036;BME280;23642;42.658;23.350;2023-08-06T15:46:45;54644.31;;;-146.31;42.36
2036;BME280;23642;42.658;23.350;2023-08-06T15:49:51;54530.75;;;-146.31;41.19
2036;BME280;23642;42.658;23.350;2023-08-06T15:52:51;54084.75;;;-146.31;37.56
2036;BME280;23642;42.658;23.350;2023-08-06T15:59:48;53993.91;;;-146.31;35.02
2036;BME280;23642;42.658;23.350;2023-08-06T17:22:40;55255.59;;;-146.31;45.68
2036;BME280;23642;42.658;23.350;2023-08-06T17:29:52;55261.78;;;-146.31;46.38
2036;BME280;23642;42.658;23.350;2023-08-06T17:37:22;55263.88;;;-146.31;47.35
2036;BME280;23642;42.658;23.350;2023-08-06T17:39:38;55263.88;;;-146.31;48.21
2036;BME280;23642;42.658;23.350;2023-08-06T17:42:47;55245.28;;;-146.31;48.46
2036;BME280;23642;42.658;23.350;2023-08-06T17:46:11;55288.66;;;-146.31;48.70
2036;BME280;23642;42.658;23.350;2023-08-06T17:49:16;55278.31;;;-146.31;49.03
2036;BME280;23642;42.658;23.350;2023-08-06T17:52:04;55303.09;;;-146.31;49.43
2036;BME280;23642;42.658;23.350;2023-08-06T18:23:36;55307.22;;;-146.31;50.14
2036;BME280;23642;42.658;23.350;2023-08-06T18:46:52;55356.81;;;-146.31;49.23
2036;BME280;23642;42.658;23.350;2023-08-06T19:09:03;55340.28;;;-146.31;55.51
2036;BME280;23642;42.658;23.350;2023-08-06T19:12:16;55334.09;;;-146.31;56.03
2036;BME280;23642;42.658;23.350;2023-08-06T19:14:52;55323.75;;;-146.31;56.79
2036;BME280;23642;42.658;23.350;2023-08-06T19:18:03;55332.03;;;-146.31;58.35
2036;BME280;23642;42.658;23.350;2023-08-06T19:21:03;55298.97;;;-146.31;59.96
2036;BME280;23642;42.658;23.350;2023-08-06T19:23:56;55282.44;;;-146.31;60.05
2036;BME280;23642;42.658;23.350;2023-08-06T19:27:03;55257.66;;;-146.31;58.83
2036;BME280;23642;42.658;23.350;2023-08-06T19:30:31;55284.50;;;-146.31;60.61
2036;BME280;23642;42.658;23.350;2023-08-06T19:33:28;55212.22;;;-146.31;59.91
2036;BME280;23642;42.658;23.350;2023-08-06T19:36:06;55226.69;;;-146.31;60.28
2036;BME280;23642;42.658;23.350;2023-08-06T19:38:34;55214.28;;;-146.31;60.38
2036;BME280;23642;42.658;23.350;2023-08-06T19:41:09;55191.56;;;-146.31;61.30
2036;BME280;23642;42.658;23.350;2023-08-06T19:43:36;55373.31;;;-146.31;62.10
2036;BME280;23642;42.658;23.350;2023-08-06T19:46:06;55369.19;;;-146.31;64.84
2036;BME280;23642;42.658;23.350;2023-08-06T19:48:37;55327.88;;;-146.31;65.37
2036;BME280;23642;42.658;23.350;2023-08-06T19:51:04;55327.88;;;-146.31;65.60
2036;BME280;23642;42.658;23.350;2023-08-06T19:53:32;55332.03;;;-146.31;66.75
2036;BME280;23642;42.658;23.350;2023-08-06T19:56:00;55261.78;;;-146.31;67.69
2036;BME280;23642;42.658;23.350;2023-08-06T19:58:33;55203.97;;;-146.31;68.58
2036;BME280;23642;42.658;23.350;2023-08-06T20:01:01;55073.84;;;-146.31;70.63
2036;BME280;23642;42.658;23.350;2023-08-06T20:03:31;54823.97;;;-146.31;72.33
2036;BME280;23642;42.658;23.350;2023-08-06T20:06:00;54287.09;;;-146.31;74.38
2036;BME280;23642;42.658;23.350;2023-08-06T20:08:28;54070.31;;;-146.31;75.70
2036;BME280;23642;42.658;23.350;2023-08-06T20:10:55;53944.38;;;-146.31;75.46
2036;BME280;23642;42.658;23.350;2023-08-06T20:13:23;53888.63;;;-146.31;75.56
2036;BME280;23642;42.658;23.350;2023-08-06T20:15:52;53812.25;;;-146.31;77.08
2036;BME280;23642;42.658;23.350;2023-08-06T20:18:19;53700.75;;;-146.31;77.65
2036;BME280;23642;42.658;23.350;2023-08-06T20:20:51;53663.59;;;-146.31;77.76
2036;BME280;23642;42.658;23.350;2023-08-06T20:23:21;53630.56;;;-146.31;77.54
2036;BME280;23642;42.658;23.350;2023-08-06T20:25:49;53556.25;;;-146.31;79.83
2036;BME280;23642;42.658;23.350;2023-08-06T20:28:17;53461.31;;;-146.31;81.00
2036;BME280;23642;42.658;23.350;2023-08-06T20:30:44;53372.53;;;-146.31;80.45
2036;BME280;23642;42.658;23.350;2023-08-06T20:33:13;53261.09;;;-146.31;82.40
2036;BME280;23642;42.658;23.350;2023-08-06T20:35:41;53256.94;;;-146.31;81.93
2036;BME280;23642;42.658;23.350;2023-08-06T20:38:18;53164.06;;;-146.31;83.46
2036;BME280;23642;42.658;23.350;2023-08-06T20:40:47;53205.34;;;-146.31;82.07
2036;BME280;23642;42.658;23.350;2023-08-06T20:43:14;53201.22;;;-146.31;81.97
2036;BME280;23642;42.658;23.350;2023-08-06T20:45:42;53201.22;;;-146.31;82.34
2036;BME280;23642;42.658;23.350;2023-08-06T20:48:09;53168.19;;;-146.31;82.04
2036;BME280;23642;42.658;23.350;2023-08-06T20:50:40;53145.50;;;-146.31;81.97
2036;BME280;23642;42.658;23.350;2023-08-06T20:53:07;53192.97;;;-146.31;81.10
2036;BME280;23642;42.658;23.350;2023-08-06T20:55:34;53192.97;;;-146.31;81.21
2036;BME280;23642;42.658;23.350;2023-08-06T20:58:02;53195.03;;;-146.31;80.99
2036;BME280;23642;42.658;23.350;2023-08-06T21:00:28;53217.72;;;-146.31;80.77
2036;BME280;23642;42.658;23.350;2023-08-06T21:02:55;53205.34;;;-146.31;81.82
2036;BME280;23642;42.658;23.350;2023-08-06T21:05:22;53205.34;;;-146.31;82.23